createdAt,value
2018-05-10T00:01:32.000Z,19.30
2018-05-10T00:03:59.483Z,19.30
2018-05-10T00:06:26.962Z,19.20
2018-05-10T00:08:55.208Z,19.00
2018-05-10T00:11:22.706Z,19.00
2018-05-10T00:13:50.181Z,19.00
2018-05-10T00:16:17.655Z,18.90
2018-05-10T00:18:45.143Z,18.90
2018-05-10T00:21:12.615Z,18.90
2018-05-10T00:23:40.103Z,18.80
2018-05-10T00:26:07.572Z,18.80
2018-05-10T00:28:35.042Z,18.80
2018-05-10T00:31:02.547Z,18.80
2018-05-10T00:33:30.025Z,18.80
2018-05-10T00:35:58.276Z,18.60
2018-05-10T00:38:26.509Z,18.60
2018-05-10T00:40:53.983Z,18.60
2018-05-10T00:43:21.478Z,18.60
2018-05-10T00:45:49.732Z,18.50
2018-05-10T00:48:17.227Z,18.50
2018-05-10T00:50:45.464Z,18.30
2018-05-10T00:53:12.987Z,18.30
2018-05-10T00:55:40.468Z,18.30
2018-05-10T00:58:07.942Z,18.20
2018-05-10T01:00:35.426Z,18.20
2018-05-10T01:03:03.668Z,18.20
2018-05-10T01:05:31.172Z,18.20
2018-05-10T01:07:59.447Z,18.00
2018-05-10T01:10:27.684Z,18.00
2018-05-10T01:12:55.161Z,18.00
2018-05-10T01:15:23.403Z,17.80
2018-05-10T01:17:50.910Z,17.80
2018-05-10T01:20:19.144Z,17.80
2018-05-10T01:22:46.645Z,17.80
2018-05-10T01:25:14.879Z,17.80
2018-05-10T01:27:42.355Z,17.70
2018-05-10T01:30:09.835Z,17.70
2018-05-10T01:32:38.084Z,17.70
2018-05-10T01:35:17.325Z,17.70
2018-05-10T01:37:44.791Z,17.70
2018-05-10T01:40:13.069Z,17.60
2018-05-10T01:42:40.541Z,17.60
2018-05-10T01:45:08.792Z,17.60
2018-05-10T01:47:36.289Z,17.60
2018-05-10T01:50:04.525Z,17.50
2018-05-10T01:52:32.027Z,17.50
2018-05-10T01:54:59.507Z,17.50
2018-05-10T01:57:26.995Z,17.50
2018-05-10T01:59:54.469Z,17.50
2018-05-10T02:02:22.708Z,17.50
2018-05-10T02:04:50.208Z,17.40
2018-05-10T02:07:17.683Z,17.30
2018-05-10T02:09:45.936Z,17.30
2018-05-10T02:12:14.172Z,17.30
2018-05-10T02:14:41.722Z,17.20
2018-05-10T02:17:09.933Z,17.20
2018-05-10T02:19:37.415Z,17.20
2018-05-10T02:22:05.668Z,17.00
2018-05-10T02:24:33.138Z,17.00
2018-05-10T02:27:01.403Z,17.10
2018-05-10T02:29:28.868Z,17.00
2018-05-10T02:31:56.377Z,17.00
2018-05-10T02:34:23.876Z,17.00
2018-05-10T02:36:51.346Z,16.90
2018-05-10T02:39:18.835Z,16.80
2018-05-10T02:41:46.315Z,16.80
2018-05-10T02:44:13.800Z,16.80
2018-05-10T02:46:41.269Z,16.70
2018-05-10T02:49:08.765Z,16.70
2018-05-10T02:51:37.006Z,16.60
2018-05-10T02:54:04.489Z,16.50
2018-05-10T02:56:32.738Z,16.50
2018-05-10T02:59:00.230Z,16.50
2018-05-10T03:01:28.493Z,16.20
2018-05-10T03:03:55.972Z,16.20
2018-05-10T03:06:24.228Z,16.30
2018-05-10T03:08:52.496Z,16.30
2018-05-10T03:11:19.966Z,16.20
2018-05-10T03:13:48.223Z,16.20
2018-05-10T03:16:15.706Z,16.20
2018-05-10T03:18:43.969Z,16.00
2018-05-10T03:21:12.204Z,16.00
2018-05-10T03:23:39.725Z,16.00
2018-05-10T03:26:07.997Z,15.90
2018-05-10T03:28:36.311Z,15.80
2018-05-10T03:31:03.741Z,15.80
2018-05-10T03:33:31.974Z,15.80
2018-05-10T03:35:59.456Z,15.80
2018-05-10T03:38:27.699Z,15.70
2018-05-10T03:40:55.191Z,15.70
2018-05-10T03:43:23.440Z,15.60
2018-05-10T03:45:50.918Z,15.60
2018-05-10T03:48:18.404Z,15.60
2018-05-10T03:50:46.644Z,15.50
2018-05-10T03:53:14.167Z,15.60
2018-05-10T03:55:41.640Z,15.60
2018-05-10T03:58:09.140Z,15.60
2018-05-10T04:00:37.389Z,15.50
2018-05-10T04:06:28.843Z,15.50
2018-05-10T04:09:08.147Z,15.40
2018-05-10T04:11:35.629Z,15.40
2018-05-10T04:14:03.120Z,15.30
2018-05-10T04:16:31.359Z,15.30
2018-05-10T04:18:58.855Z,15.30
2018-05-10T04:21:27.087Z,15.30
2018-05-10T04:23:54.578Z,15.30
2018-05-10T04:26:22.065Z,15.30
2018-05-10T04:28:49.536Z,15.20
2018-05-10T04:31:17.021Z,15.20
2018-05-10T04:33:44.492Z,15.20
2018-05-10T04:36:11.980Z,15.20
2018-05-10T04:38:40.275Z,15.30
2018-05-10T04:41:07.703Z,15.20
2018-05-10T04:43:35.186Z,15.30
2018-05-10T04:46:02.671Z,15.30
2018-05-10T04:48:30.160Z,15.30
2018-05-10T04:50:57.636Z,15.30
2018-05-10T04:53:25.900Z,15.50
2018-05-10T04:55:53.372Z,15.40
2018-05-10T04:58:21.611Z,15.30
2018-05-10T05:00:49.091Z,15.30
2018-05-10T05:03:16.659Z,15.20
2018-05-10T05:05:44.821Z,15.30
2018-05-10T05:08:12.292Z,15.30
2018-05-10T05:10:39.781Z,15.20
2018-05-10T05:13:07.253Z,15.20
2018-05-10T05:15:34.748Z,15.10
2018-05-10T05:18:02.234Z,15.20
2018-05-10T05:20:30.475Z,15.20
2018-05-10T05:22:57.987Z,15.20
2018-05-10T05:25:25.897Z,15.30
2018-05-10T05:27:53.393Z,15.30
2018-05-10T05:30:21.648Z,15.20
2018-05-10T05:32:49.120Z,15.20
2018-05-10T05:35:17.383Z,15.20
2018-05-10T05:37:44.855Z,15.20
2018-05-10T05:40:12.336Z,15.10
2018-05-10T05:42:40.572Z,15.10
2018-05-10T05:45:08.064Z,15.10
2018-05-10T05:47:36.304Z,15.10
2018-05-10T05:50:03.772Z,15.10
2018-05-10T05:52:31.258Z,15.10
2018-05-10T05:54:59.595Z,15.10
2018-05-10T05:57:27.016Z,15.10
2018-05-10T05:59:54.483Z,15.10
2018-05-10T06:02:22.001Z,15.00
2018-05-10T06:04:50.237Z,15.30
2018-05-10T06:07:17.705Z,15.30
2018-05-10T06:09:45.196Z,15.40
2018-05-10T06:12:13.443Z,15.40
2018-05-10T06:14:40.947Z,15.40
2018-05-10T06:17:08.433Z,15.30
2018-05-10T06:19:35.927Z,15.40
2018-05-10T06:22:03.404Z,15.50
2018-05-10T06:24:31.641Z,15.70
2018-05-10T06:26:59.132Z,15.70
2018-05-10T06:29:28.137Z,15.80
2018-05-10T06:31:56.392Z,15.90
2018-05-10T06:34:23.867Z,15.90
2018-05-10T06:36:52.140Z,16.20
2018-05-10T06:39:20.381Z,16.20
2018-05-10T06:41:47.848Z,16.20
2018-05-10T06:44:15.337Z,16.30
2018-05-10T06:46:43.591Z,16.30
2018-05-10T06:49:11.077Z,16.20
2018-05-10T06:51:39.319Z,16.00
2018-05-10T06:54:06.807Z,16.00
2018-05-10T06:56:35.121Z,16.00
2018-05-10T06:59:02.600Z,16.10
2018-05-10T07:01:30.088Z,16.00
2018-05-10T07:03:59.064Z,16.20
2018-05-10T07:06:26.561Z,16.20
2018-05-10T07:08:54.801Z,16.40
2018-05-10T07:11:22.284Z,16.30
2018-05-10T07:13:50.525Z,16.70
2018-05-10T07:16:17.994Z,16.70
2018-05-10T07:18:45.486Z,16.90
2018-05-10T07:21:13.728Z,16.90
2018-05-10T07:23:41.212Z,16.90
2018-05-10T07:26:09.451Z,16.80
2018-05-10T07:28:36.957Z,16.80
2018-05-10T07:31:05.189Z,16.60
2018-05-10T07:33:32.663Z,16.60
2018-05-10T07:36:00.148Z,16.60
2018-05-10T07:38:28.381Z,16.80
2018-05-10T07:40:55.868Z,16.80
2018-05-10T07:43:23.336Z,16.90
2018-05-10T07:45:51.592Z,17.10
2018-05-10T07:48:19.065Z,17.10
2018-05-10T07:50:47.304Z,17.20
2018-05-10T07:53:14.855Z,17.20
2018-05-10T07:55:42.323Z,17.20
2018-05-10T07:58:09.821Z,17.20
2018-05-10T08:00:38.066Z,17.50
2018-05-10T08:03:05.569Z,17.50
2018-05-10T08:05:33.082Z,17.60
2018-05-10T08:08:00.553Z,17.70
2018-05-10T08:10:29.559Z,18.20
2018-05-10T08:12:57.027Z,18.20
2018-05-10T08:15:25.282Z,18.30
2018-05-10T08:17:53.564Z,18.20
2018-05-10T08:20:21.057Z,18.10
2018-05-10T08:22:48.540Z,18.40
2018-05-10T08:25:16.015Z,18.40
2018-05-10T08:27:46.461Z,18.30
2018-05-10T08:30:14.828Z,18.20
2018-05-10T08:32:43.084Z,18.10
2018-05-10T08:35:10.597Z,18.10
2018-05-10T08:37:38.840Z,17.80
2018-05-10T08:40:06.344Z,17.70
2018-05-10T08:42:34.648Z,17.80
2018-05-10T08:45:02.208Z,17.80
2018-05-10T08:47:29.680Z,17.80
2018-05-10T08:49:57.159Z,17.80
2018-05-10T08:52:24.663Z,17.90
2018-05-10T08:54:52.134Z,18.00
2018-05-10T08:57:19.638Z,18.00
2018-05-10T08:59:47.183Z,17.90
2018-05-10T09:02:14.680Z,18.00
2018-05-10T09:04:42.923Z,18.00
2018-05-10T09:07:10.404Z,18.00
2018-05-10T09:09:37.906Z,18.10
2018-05-10T09:12:05.404Z,18.30
2018-05-10T09:14:32.887Z,18.40
2018-05-10T09:17:01.144Z,18.10
2018-05-10T09:19:28.616Z,18.10
2018-05-10T09:21:56.897Z,18.20
2018-05-10T09:24:24.402Z,18.10
2018-05-10T09:26:51.893Z,18.00
2018-05-10T09:29:19.396Z,18.00
2018-05-10T09:31:46.951Z,18.20
2018-05-10T09:34:14.722Z,18.20
2018-05-10T09:36:42.190Z,18.20
2018-05-10T09:39:09.708Z,18.10
2018-05-10T09:41:37.190Z,18.10
2018-05-10T09:44:05.462Z,18.20
2018-05-10T09:46:33.024Z,18.20
2018-05-10T09:49:00.523Z,18.30
2018-05-10T09:51:28.041Z,18.30
2018-05-10T09:53:56.300Z,17.80
2018-05-10T09:56:24.584Z,17.70
2018-05-10T09:58:52.843Z,17.80
2018-05-10T10:01:20.339Z,17.80
2018-05-10T10:03:47.838Z,17.70
2018-05-10T10:06:15.432Z,17.70
2018-05-10T10:08:42.883Z,17.80
2018-05-10T10:11:11.196Z,17.90
2018-05-10T10:13:38.693Z,17.90
2018-05-10T10:16:06.212Z,17.70
2018-05-10T10:18:33.735Z,17.70
2018-05-10T10:21:01.298Z,17.70
2018-05-10T10:23:28.780Z,17.30
2018-05-10T10:25:57.014Z,17.70
2018-05-10T10:28:24.505Z,17.70
2018-05-10T10:30:52.769Z,18.00
2018-05-10T10:33:20.246Z,18.00
2018-05-10T10:35:48.488Z,17.80
2018-05-10T10:38:16.107Z,17.80
2018-05-10T10:40:44.802Z,18.00
2018-05-10T10:43:12.292Z,18.00
2018-05-10T10:45:40.031Z,18.00
2018-05-10T10:48:09.084Z,18.20
2018-05-10T10:50:37.441Z,18.10
2018-05-10T10:53:04.946Z,18.10
2018-05-10T10:55:32.453Z,17.90
2018-05-10T10:57:59.935Z,17.90
2018-05-10T11:00:28.184Z,17.50
2018-05-10T11:02:55.649Z,17.40
2018-05-10T11:05:23.127Z,17.30
2018-05-10T11:07:51.386Z,17.30
2018-05-10T11:10:20.356Z,17.20
2018-05-10T11:12:47.849Z,17.20
2018-05-10T11:15:15.323Z,17.10
2018-05-10T11:17:44.238Z,17.20
2018-05-10T11:20:11.711Z,17.10
2018-05-10T11:22:39.241Z,17.10
2018-05-10T11:25:06.728Z,17.20
2018-05-10T11:27:34.249Z,17.30
2018-05-10T11:30:02.557Z,17.30
2018-05-10T11:32:30.017Z,17.30
2018-05-10T11:34:57.565Z,17.00
2018-05-10T11:37:25.042Z,16.80
2018-05-10T11:39:52.518Z,16.60
2018-05-10T11:42:20.004Z,16.60
2018-05-10T11:44:48.257Z,16.30
2018-05-10T11:47:15.748Z,16.30
2018-05-10T11:49:44.009Z,16.50
2018-05-10T11:52:12.657Z,16.50
2018-05-10T11:54:40.124Z,16.50
2018-05-10T11:57:07.593Z,16.60
2018-05-10T11:59:35.078Z,16.50
2018-05-10T12:02:03.352Z,16.40
2018-05-10T12:04:30.961Z,16.40
2018-05-10T12:06:58.465Z,16.40
2018-05-10T12:09:26.809Z,16.40
2018-05-10T12:11:54.289Z,16.40
2018-05-10T12:14:21.776Z,16.30
2018-05-10T12:16:50.044Z,16.30
2018-05-10T12:19:19.615Z,16.20
2018-05-10T12:21:47.155Z,16.20
2018-05-10T12:24:14.668Z,16.30
2018-05-10T12:26:42.938Z,16.40
2018-05-10T12:29:11.693Z,16.30
2018-05-10T12:31:39.278Z,16.20
2018-05-10T12:34:07.995Z,15.90
2018-05-10T12:36:36.234Z,16.00
2018-05-10T12:39:03.761Z,16.00
2018-05-10T12:41:31.291Z,15.90
2018-05-10T12:43:58.784Z,15.90
2018-05-10T12:46:27.164Z,15.80
2018-05-10T12:48:54.647Z,15.80
2018-05-10T12:51:22.141Z,15.80
2018-05-10T12:53:50.387Z,15.90
2018-05-10T12:56:18.000Z,15.90
2018-05-10T12:58:46.411Z,16.10
2018-05-10T13:01:14.024Z,16.10
2018-05-10T13:03:42.285Z,16.40
2018-05-10T13:06:09.764Z,16.40
2018-05-10T13:09:15.892Z,16.30
2018-05-10T13:11:44.907Z,16.20
2018-05-10T13:14:13.039Z,16.20
2018-05-10T13:16:40.877Z,16.30
2018-05-10T13:19:08.376Z,16.40
2018-05-10T13:21:35.869Z,16.50
2018-05-10T13:24:04.127Z,16.80
2018-05-10T13:26:31.613Z,16.80
2018-05-10T13:28:59.992Z,17.10
2018-05-10T13:31:27.422Z,17.10
2018-05-10T13:33:55.737Z,17.40
2018-05-10T13:36:24.283Z,17.40
2018-05-10T13:38:53.284Z,17.40
2018-05-10T13:41:21.659Z,17.40
2018-05-10T13:43:50.163Z,17.50
2018-05-10T13:46:18.625Z,17.50
2018-05-10T13:48:46.941Z,17.40
2018-05-10T13:51:14.428Z,17.40
2018-05-10T13:53:42.416Z,17.50
2018-05-10T13:56:09.962Z,17.50
2018-05-10T13:58:37.445Z,17.40
2018-05-10T14:01:05.288Z,17.50
2018-05-10T14:03:33.175Z,17.60
2018-05-10T14:06:02.976Z,17.50
2018-05-10T14:08:31.247Z,17.60
2018-05-10T14:10:58.730Z,17.60
2018-05-10T14:13:27.053Z,17.50
2018-05-10T14:15:54.743Z,17.50
2018-05-10T14:18:22.835Z,17.50
2018-05-10T14:20:50.406Z,17.40
2018-05-10T14:23:18.236Z,17.40
2018-05-10T14:25:45.732Z,17.50
2018-05-10T14:28:13.227Z,17.60
2018-05-10T14:30:41.255Z,17.50
2018-05-10T14:33:08.835Z,17.50
2018-05-10T14:35:36.333Z,17.50
2018-05-10T14:38:05.152Z,17.30
2018-05-10T14:40:32.666Z,17.20
2018-05-10T14:43:00.271Z,17.30
2018-05-10T14:45:29.266Z,17.50
2018-05-10T14:47:56.830Z,17.80
2018-05-10T14:50:24.965Z,18.10
2018-05-10T14:52:52.460Z,18.40
2018-05-10T14:55:19.981Z,18.60
2018-05-10T14:57:47.528Z,18.80
2018-05-10T15:00:15.094Z,18.90
2018-05-10T15:02:42.683Z,19.10
2018-05-10T15:05:10.470Z,19.20
2018-05-10T15:07:38.796Z,19.00
2018-05-10T15:10:06.341Z,19.00
2018-05-10T15:12:34.685Z,19.00
2018-05-10T15:15:02.419Z,19.00
2018-05-10T15:17:29.913Z,18.90
2018-05-10T15:19:57.405Z,18.80
2018-05-10T15:22:25.660Z,18.90
2018-05-10T15:24:53.147Z,18.80
2018-05-10T15:27:20.834Z,18.90
2018-05-10T15:29:48.322Z,19.00
2018-05-10T15:32:15.912Z,19.10
2018-05-10T15:34:44.182Z,19.20
2018-05-10T15:37:12.483Z,19.10
2018-05-10T15:39:39.992Z,19.10
2018-05-10T15:42:07.524Z,19.10
2018-05-10T15:44:35.016Z,19.10
2018-05-10T15:47:02.574Z,19.00
2018-05-10T15:49:30.886Z,18.70
2018-05-10T15:51:59.162Z,18.60
2018-05-10T15:54:26.851Z,18.60
2018-05-10T15:56:54.399Z,18.50
2018-05-10T15:59:21.960Z,18.40
2018-05-10T16:01:49.476Z,18.40
2018-05-10T16:04:16.967Z,18.50
2018-05-10T16:06:45.294Z,18.50
2018-05-10T16:09:12.763Z,18.50
2018-05-10T16:11:40.304Z,18.50
2018-05-10T16:14:07.780Z,18.60
2018-05-10T16:16:35.342Z,18.80
2018-05-10T16:19:02.896Z,18.70
2018-05-10T16:21:30.396Z,18.70
2018-05-10T16:23:58.721Z,18.60
2018-05-10T16:26:26.268Z,18.60
2018-05-10T16:28:53.812Z,18.60
2018-05-10T16:31:21.310Z,18.50
2018-05-10T16:33:48.810Z,18.50
2018-05-10T16:36:17.064Z,18.60
2018-05-10T16:38:45.356Z,18.70
2018-05-10T16:41:13.596Z,18.60
2018-05-10T16:43:41.100Z,18.60
2018-05-10T16:46:09.436Z,18.20
2018-05-10T16:48:36.916Z,18.20
2018-05-10T16:51:04.485Z,18.10
2018-05-10T16:53:32.772Z,17.90
2018-05-10T16:56:01.138Z,18.00
2018-05-10T16:58:29.392Z,18.10
2018-05-10T17:00:56.866Z,18.10
2018-05-10T17:03:25.142Z,17.90
2018-05-10T17:05:53.398Z,17.90
2018-05-10T17:08:20.886Z,17.90
2018-05-10T17:10:49.155Z,17.80
2018-05-10T17:13:16.664Z,17.80
2018-05-10T17:15:44.159Z,17.80
2018-05-10T17:18:11.624Z,17.90
2018-05-10T17:20:39.895Z,17.90
2018-05-10T17:23:07.365Z,17.90
2018-05-10T17:25:34.849Z,17.90
2018-05-10T17:28:03.094Z,17.80
2018-05-10T17:30:31.359Z,17.70
2018-05-10T17:32:58.845Z,17.70
2018-05-10T17:35:27.092Z,17.80
2018-05-10T17:37:54.589Z,17.70
2018-05-10T17:40:22.824Z,17.80
2018-05-10T17:42:50.379Z,17.80
2018-05-10T17:45:17.849Z,17.80
2018-05-10T17:47:45.328Z,17.90
2018-05-10T17:50:12.932Z,17.80
2018-05-10T17:52:40.447Z,17.90
2018-05-10T17:55:08.054Z,18.00
2018-05-10T17:57:36.297Z,17.90
2018-05-10T18:00:04.539Z,17.80
2018-05-10T18:02:32.002Z,17.80
2018-05-10T18:04:59.493Z,17.70
2018-05-10T18:07:27.803Z,17.60
2018-05-10T18:09:55.326Z,17.60
2018-05-10T18:12:23.735Z,17.50
2018-05-10T18:14:51.210Z,17.50
2018-05-10T18:17:18.761Z,17.50
2018-05-10T18:19:46.378Z,17.50
2018-05-10T18:22:13.900Z,17.40
2018-05-10T18:24:41.440Z,17.30
2018-05-10T18:27:08.977Z,17.30
2018-05-10T18:29:36.480Z,17.30
2018-05-10T18:32:03.949Z,17.30
2018-05-10T18:34:31.424Z,17.30
2018-05-10T18:37:00.383Z,17.20
2018-05-10T18:39:27.874Z,17.10
2018-05-10T18:41:56.857Z,17.10
2018-05-10T18:44:24.356Z,17.00
2018-05-10T18:46:52.649Z,17.00
2018-05-10T18:49:21.206Z,17.00
2018-05-10T18:51:49.486Z,16.80
2018-05-10T18:54:17.721Z,16.70
2018-05-10T18:56:45.196Z,16.70
2018-05-10T18:59:14.168Z,16.60
2018-05-10T19:01:41.712Z,16.60
2018-05-10T19:04:11.125Z,16.50
2018-05-10T19:06:38.596Z,16.40
2018-05-10T19:09:06.075Z,16.40
2018-05-10T19:11:34.316Z,16.30
2018-05-10T19:14:01.803Z,16.30
2018-05-10T19:16:29.316Z,16.20
2018-05-10T19:18:56.872Z,16.20
2018-05-10T19:21:24.384Z,16.20
2018-05-10T19:23:52.646Z,16.10
2018-05-10T19:26:20.180Z,16.10
2018-05-10T19:28:48.376Z,16.00
2018-05-10T19:31:15.884Z,16.00
2018-05-10T19:33:43.396Z,16.00
2018-05-10T19:36:10.865Z,16.00
2018-05-10T19:38:38.394Z,15.90
2018-05-10T19:41:05.946Z,15.90
2018-05-10T19:43:33.436Z,15.90
2018-05-10T19:46:00.914Z,16.00
2018-05-10T19:48:30.188Z,16.00
2018-05-10T19:50:57.657Z,16.00
2018-05-10T19:53:25.129Z,16.00
2018-05-10T19:55:53.383Z,15.90
2018-05-10T19:58:20.854Z,15.90
2018-05-10T20:00:49.840Z,15.90
2018-05-10T20:03:17.305Z,15.90
2018-05-10T20:05:46.327Z,15.90
2018-05-10T20:08:14.574Z,15.90
2018-05-10T20:10:42.036Z,15.90
2018-05-10T20:13:09.536Z,15.90
2018-05-10T20:15:37.011Z,15.80
2018-05-10T20:18:06.789Z,15.80
2018-05-10T20:20:34.285Z,15.70
2018-05-10T20:23:01.764Z,15.60
2018-05-10T20:25:29.220Z,15.60
2018-05-10T20:27:56.746Z,15.50
2018-05-10T20:30:24.237Z,15.40
2018-05-10T20:32:51.713Z,15.40
2018-05-10T20:35:19.191Z,15.30
2018-05-10T20:37:47.433Z,15.30
2018-05-10T20:40:14.941Z,15.30
2018-05-10T20:42:42.423Z,15.30
2018-05-10T20:45:10.015Z,15.30
2018-05-10T20:47:37.507Z,15.30
2018-05-10T20:50:05.809Z,15.30
2018-05-10T20:52:33.303Z,15.30
2018-05-10T20:55:00.831Z,15.30
2018-05-10T20:57:29.045Z,15.30
2018-05-10T20:59:56.515Z,15.30
2018-05-10T21:02:23.971Z,15.20
2018-05-10T21:04:51.457Z,15.20
2018-05-10T21:07:19.704Z,15.10
2018-05-10T21:09:47.213Z,15.00
2018-05-10T21:12:26.516Z,15.00
2018-05-10T21:14:54.780Z,14.70
2018-05-10T21:17:23.021Z,14.60
2018-05-10T21:19:50.496Z,14.50
2018-05-10T21:22:17.977Z,14.50
2018-05-10T21:24:45.436Z,14.40
2018-05-10T21:27:13.703Z,14.40
2018-05-10T21:29:41.256Z,14.30
2018-05-10T21:32:08.789Z,14.30
2018-05-10T21:34:36.264Z,14.30
2018-05-10T21:37:04.923Z,14.20
2018-05-10T21:39:32.412Z,14.10
2018-05-10T21:41:59.884Z,14.10
2018-05-10T21:44:27.371Z,14.00
2018-05-10T21:46:55.655Z,14.00
2018-05-10T21:49:35.228Z,14.00
2018-05-10T21:52:02.725Z,14.00
2018-05-10T21:54:30.249Z,13.90
2018-05-10T21:56:57.739Z,13.80
2018-05-10T21:59:25.224Z,13.70
2018-05-10T22:01:52.726Z,13.70
2018-05-10T22:04:20.188Z,13.70
2018-05-10T22:06:47.720Z,13.70
2018-05-10T22:09:15.955Z,13.80
2018-05-10T22:11:44.206Z,13.70
2018-05-10T22:14:11.703Z,13.70
2018-05-10T22:16:39.927Z,13.60
2018-05-10T22:19:07.451Z,13.60
2018-05-10T22:21:34.944Z,13.60
2018-05-10T22:24:02.434Z,13.50
2018-05-10T22:26:29.904Z,13.50
2018-05-10T22:28:58.131Z,13.40
2018-05-10T22:31:25.609Z,13.40
2018-05-10T22:33:53.064Z,13.40
2018-05-10T22:36:20.548Z,13.40
2018-05-10T22:38:48.004Z,13.40
2018-05-10T22:41:15.483Z,13.40
2018-05-10T22:43:43.714Z,13.40
2018-05-10T22:46:11.184Z,13.40
2018-05-10T22:48:38.676Z,13.40
2018-05-10T22:51:06.910Z,13.50
2018-05-10T22:53:34.388Z,13.40
2018-05-10T22:56:01.939Z,13.50
2018-05-10T22:58:30.104Z,13.40
2018-05-10T23:00:57.575Z,13.40
2018-05-10T23:03:25.036Z,13.40
2018-05-10T23:05:52.515Z,13.30
2018-05-10T23:08:20.744Z,13.30
2018-05-10T23:10:48.226Z,13.20
2018-05-10T23:13:15.734Z,13.30
2018-05-10T23:15:43.222Z,13.30
2018-05-10T23:18:10.694Z,13.30
2018-05-10T23:20:38.196Z,13.20
2018-05-10T23:23:05.688Z,13.20
2018-05-10T23:25:33.156Z,13.20
2018-05-10T23:28:00.632Z,13.20
2018-05-10T23:30:28.094Z,13.10
2018-05-10T23:32:55.568Z,13.10
2018-05-10T23:35:23.803Z,13.00
2018-05-10T23:37:51.263Z,12.90
2018-05-10T23:40:18.752Z,13.00
2018-05-10T23:42:46.983Z,12.90
2018-05-10T23:47:25.520Z,12.90
2018-05-10T23:49:53.012Z,12.80
2018-05-10T23:52:20.481Z,12.80
2018-05-10T23:54:48.713Z,12.70
2018-05-10T23:57:16.211Z,12.70
2018-05-10T23:59:44.464Z,12.50
